sensor_id;sensor_type;location;lat;lon;timestamp;temperature;humidity
76857;DHT22;66179;44.686;37.628;2023-04-22T00:00:29;11.46;91.47
76857;DHT22;66179;44.686;37.628;2023-04-22T00:02:57;11.46;90.57
76857;DHT22;66179;44.686;37.628;2023-04-22T00:05:24;11.46;90.96
76857;DHT22;66179;44.686;37.628;2023-04-22T00:07:51;11.48;91.23
76857;DHT22;66179;44.686;37.628;2023-04-22T00:10:18;11.46;91.08
76857;DHT22;66179;44.686;37.628;2023-04-22T00:12:47;11.48;91.66
76857;DHT22;66179;44.686;37.628;2023-04-22T00:15:14;11.45;89.86
76857;DHT22;66179;44.686;37.628;2023-04-22T00:17:43;11.47;90.89
76857;DHT22;66179;44.686;37.628;2023-04-22T00:20:19;11.44;91.49
76857;DHT22;66179;44.686;37.628;2023-04-22T00:22:49;11.44;88.57
76857;DHT22;66179;44.686;37.628;2023-04-22T00:25:16;11.45;88.51
76857;DHT22;66179;44.686;37.628;2023-04-22T00:27:43;11.43;88.14
76857;DHT22;66179;44.686;37.628;2023-04-22T00:30:11;11.47;90.05
76857;DHT22;66179;44.686;37.628;2023-04-22T00:32:38;11.45;89.66
76857;DHT22;66179;44.686;37.628;2023-04-22T00:35:05;11.48;90.42
76857;DHT22;66179;44.686;37.628;2023-04-22T00:37:32;11.45;91.15
76857;DHT22;66179;44.686;37.628;2023-04-22T00:39:59;11.45;91.72
76857;DHT22;66179;44.686;37.628;2023-04-22T00:42:25;11.49;90.82
76857;DHT22;66179;44.686;37.628;2023-04-22T00:44:52;11.55;90.01
76857;DHT22;66179;44.686;37.628;2023-04-22T00:47:19;11.53;90.44
76857;DHT22;66179;44.686;37.628;2023-04-22T00:49:48;11.53;90.02
76857;DHT22;66179;44.686;37.628;2023-04-22T00:52:15;11.52;90.31
76857;DHT22;66179;44.686;37.628;2023-04-22T00:55:02;11.54;89.97
76857;DHT22;66179;44.686;37.628;2023-04-22T00:57:29;11.52;88.98
76857;DHT22;66179;44.686;37.628;2023-04-22T00:59:56;11.53;88.23
76857;DHT22;66179;44.686;37.628;2023-04-22T01:02:23;11.54;89.20
76857;DHT22;66179;44.686;37.628;2023-04-22T01:04:51;11.54;89.60
76857;DHT22;66179;44.686;37.628;2023-04-22T01:07:22;11.58;90.91
76857;DHT22;66179;44.686;37.628;2023-04-22T01:09:49;11.58;89.84
76857;DHT22;66179;44.686;37.628;2023-04-22T01:12:15;11.59;89.44
76857;DHT22;66179;44.686;37.628;2023-04-22T01:14:42;11.63;90.53
76857;DHT22;66179;44.686;37.628;2023-04-22T01:17:08;11.70;88.95
76857;DHT22;66179;44.686;37.628;2023-04-22T01:19:37;11.68;90.66
76857;DHT22;66179;44.686;37.628;2023-04-22T01:22:04;11.66;89.15
76857;DHT22;66179;44.686;37.628;2023-04-22T01:24:33;11.67;88.68
76857;DHT22;66179;44.686;37.628;2023-04-22T01:27:00;11.66;89.35
76857;DHT22;66179;44.686;37.628;2023-04-22T01:29:27;11.62;88.68
76857;DHT22;66179;44.686;37.628;2023-04-22T01:31:54;11.61;89.86
76857;DHT22;66179;44.686;37.628;2023-04-22T01:34:45;11.62;88.30
76857;DHT22;66179;44.686;37.628;2023-04-22T01:37:12;11.64;88.66
76857;DHT22;66179;44.686;37.628;2023-04-22T01:39:45;11.66;88.33
76857;DHT22;66179;44.686;37.628;2023-04-22T01:42:12;11.64;90.49
76857;DHT22;66179;44.686;37.628;2023-04-22T01:44:39;11.68;89.30
76857;DHT22;66179;44.686;37.628;2023-04-22T01:47:06;11.69;89.22
76857;DHT22;66179;44.686;37.628;2023-04-22T01:49:34;11.71;88.96
76857;DHT22;66179;44.686;37.628;2023-04-22T01:52:01;11.68;90.05
76857;DHT22;66179;44.686;37.628;2023-04-22T01:54:28;11.63;89.71
76857;DHT22;66179;44.686;37.628;2023-04-22T01:56:55;11.70;89.60
76857;DHT22;66179;44.686;37.628;2023-04-22T01:59:24;11.69;88.69
76857;DHT22;66179;44.686;37.628;2023-04-22T02:01:51;11.72;89.21
76857;DHT22;66179;44.686;37.628;2023-04-22T02:04:18;11.74;88.69
76857;DHT22;66179;44.686;37.628;2023-04-22T02:06:45;11.79;89.25
76857;DHT22;66179;44.686;37.628;2023-04-22T02:09:12;11.79;88.76
76857;DHT22;66179;44.686;37.628;2023-04-22T02:11:38;11.78;90.15
76857;DHT22;66179;44.686;37.628;2023-04-22T02:14:06;11.78;89.15
76857;DHT22;66179;44.686;37.628;2023-04-22T02:16:33;11.75;89.84
76857;DHT22;66179;44.686;37.628;2023-04-22T02:18:59;11.76;89.13
76857;DHT22;66179;44.686;37.628;2023-04-22T02:21:30;11.78;89.54
76857;DHT22;66179;44.686;37.628;2023-04-22T02:24:00;11.77;88.60
76857;DHT22;66179;44.686;37.628;2023-04-22T02:26:28;11.76;88.19
76857;DHT22;66179;44.686;37.628;2023-04-22T02:28:56;11.79;89.19
76857;DHT22;66179;44.686;37.628;2023-04-22T02:31:25;11.79;88.44
76857;DHT22;66179;44.686;37.628;2023-04-22T02:33:52;11.83;89.41
76857;DHT22;66179;44.686;37.628;2023-04-22T02:36:19;11.85;88.83
76857;DHT22;66179;44.686;37.628;2023-04-22T02:38:46;11.89;88.48
76857;DHT22;66179;44.686;37.628;2023-04-22T02:41:14;11.87;89.60
76857;DHT22;66179;44.686;37.628;2023-04-22T02:43:41;11.85;89.86
76857;DHT22;66179;44.686;37.628;2023-04-22T02:46:12;11.87;89.53
76857;DHT22;66179;44.686;37.628;2023-04-22T02:48:41;11.85;90.50
76857;DHT22;66179;44.686;37.628;2023-04-22T02:51:14;11.87;89.59
76857;DHT22;66179;44.686;37.628;2023-04-22T02:53:41;11.87;89.33
76857;DHT22;66179;44.686;37.628;2023-04-22T02:56:08;11.87;89.25
76857;DHT22;66179;44.686;37.628;2023-04-22T02:58:35;11.85;90.00
76857;DHT22;66179;44.686;37.628;2023-04-22T03:01:02;11.79;90.50
76857;DHT22;66179;44.686;37.628;2023-04-22T03:03:29;11.78;89.76
76857;DHT22;66179;44.686;37.628;2023-04-22T03:05:57;11.79;89.80
76857;DHT22;66179;44.686;37.628;2023-04-22T03:08:24;11.84;90.05
76857;DHT22;66179;44.686;37.628;2023-04-22T03:10:51;11.83;90.05
76857;DHT22;66179;44.686;37.628;2023-04-22T03:13:18;11.84;89.47
76857;DHT22;66179;44.686;37.628;2023-04-22T03:15:45;11.86;89.33
76857;DHT22;66179;44.686;37.628;2023-04-22T03:18:12;11.86;89.96
76857;DHT22;66179;44.686;37.628;2023-04-22T03:20:39;11.86;88.74
76857;DHT22;66179;44.686;37.628;2023-04-22T03:23:06;11.87;88.55
76857;DHT22;66179;44.686;37.628;2023-04-22T03:25:34;11.88;89.56
76857;DHT22;66179;44.686;37.628;2023-04-22T03:28:03;11.90;88.94
76857;DHT22;66179;44.686;37.628;2023-04-22T03:30:30;11.90;88.88
76857;DHT22;66179;44.686;37.628;2023-04-22T03:32:58;11.97;89.12
76857;DHT22;66179;44.686;37.628;2023-04-22T03:35:31;12.02;89.25
76857;DHT22;66179;44.686;37.628;2023-04-22T03:38:00;11.98;89.13
76857;DHT22;66179;44.686;37.628;2023-04-22T03:40:31;12.00;87.44
76857;DHT22;66179;44.686;37.628;2023-04-22T03:43:00;11.94;86.55
76857;DHT22;66179;44.686;37.628;2023-04-22T03:45:29;11.94;86.37
76857;DHT22;66179;44.686;37.628;2023-04-22T03:48:16;11.99;86.67
76857;DHT22;66179;44.686;37.628;2023-04-22T03:50:47;11.97;85.81
76857;DHT22;66179;44.686;37.628;2023-04-22T03:53:15;11.93;85.91
76857;DHT22;66179;44.686;37.628;2023-04-22T03:55:41;11.98;85.93
76857;DHT22;66179;44.686;37.628;2023-04-22T03:58:08;12.00;85.69
76857;DHT22;66179;44.686;37.628;2023-04-22T04:00:36;11.98;85.18
76857;DHT22;66179;44.686;37.628;2023-04-22T04:03:08;12.00;85.36
76857;DHT22;66179;44.686;37.628;2023-04-22T04:05:35;11.99;85.22
76857;DHT22;66179;44.686;37.628;2023-04-22T04:08:02;12.03;86.12
76857;DHT22;66179;44.686;37.628;2023-04-22T04:10:29;12.00;85.32
76857;DHT22;66179;44.686;37.628;2023-04-22T04:12:58;12.01;86.51
76857;DHT22;66179;44.686;37.628;2023-04-22T04:15:26;12.04;85.84
76857;DHT22;66179;44.686;37.628;2023-04-22T04:17:53;12.04;86.92
76857;DHT22;66179;44.686;37.628;2023-04-22T04:20:23;12.10;87.34
76857;DHT22;66179;44.686;37.628;2023-04-22T04:22:50;12.11;86.86
76857;DHT22;66179;44.686;37.628;2023-04-22T04:25:16;12.08;87.77
76857;DHT22;66179;44.686;37.628;2023-04-22T04:27:44;12.08;87.93
76857;DHT22;66179;44.686;37.628;2023-04-22T04:30:13;12.04;88.08
76857;DHT22;66179;44.686;37.628;2023-04-22T04:32:46;12.10;89.11
76857;DHT22;66179;44.686;37.628;2023-04-22T04:35:15;12.07;89.73
76857;DHT22;66179;44.686;37.628;2023-04-22T04:37:48;12.08;91.02
76857;DHT22;66179;44.686;37.628;2023-04-22T04:40:16;12.03;91.31
76857;DHT22;66179;44.686;37.628;2023-04-22T04:43:04;12.00;92.01
76857;DHT22;66179;44.686;37.628;2023-04-22T04:45:40;11.93;90.99
76857;DHT22;66179;44.686;37.628;2023-04-22T04:48:13;11.90;91.65
76857;DHT22;66179;44.686;37.628;2023-04-22T04:50:44;11.90;92.45
76857;DHT22;66179;44.686;37.628;2023-04-22T04:53:11;11.82;93.01
76857;DHT22;66179;44.686;37.628;2023-04-22T04:55:41;11.76;94.11
76857;DHT22;66179;44.686;37.628;2023-04-22T04:58:16;11.71;93.78
76857;DHT22;66179;44.686;37.628;2023-04-22T05:00:42;11.72;93.91
76857;DHT22;66179;44.686;37.628;2023-04-22T05:03:10;11.74;94.18
76857;DHT22;66179;44.686;37.628;2023-04-22T05:05:38;11.71;94.08
76857;DHT22;66179;44.686;37.628;2023-04-22T05:08:05;11.79;93.85
76857;DHT22;66179;44.686;37.628;2023-04-22T05:10:34;11.85;93.55
76857;DHT22;66179;44.686;37.628;2023-04-22T05:13:02;11.92;94.89
76857;DHT22;66179;44.686;37.628;2023-04-22T05:15:29;12.00;93.78
76857;DHT22;66179;44.686;37.628;2023-04-22T05:17:56;12.07;94.33
76857;DHT22;66179;44.686;37.628;2023-04-22T05:20:23;12.15;95.30
76857;DHT22;66179;44.686;37.628;2023-04-22T05:22:50;12.36;95.55
76857;DHT22;66179;44.686;37.628;2023-04-22T05:25:17;12.47;93.23
76857;DHT22;66179;44.686;37.628;2023-04-22T05:27:53;12.51;92.19
76857;DHT22;66179;44.686;37.628;2023-04-22T05:30:20;12.53;92.32
76857;DHT22;66179;44.686;37.628;2023-04-22T05:32:47;12.52;91.87
76857;DHT22;66179;44.686;37.628;2023-04-22T05:35:14;12.51;93.02
76857;DHT22;66179;44.686;37.628;2023-04-22T05:37:41;12.49;92.98
76857;DHT22;66179;44.686;37.628;2023-04-22T05:40:08;12.56;93.00
76857;DHT22;66179;44.686;37.628;2023-04-22T05:42:35;12.53;92.82
76857;DHT22;66179;44.686;37.628;2023-04-22T05:45:03;12.67;93.43
76857;DHT22;66179;44.686;37.628;2023-04-22T05:47:30;12.81;91.15
76857;DHT22;66179;44.686;37.628;2023-04-22T05:49:57;12.96;91.92
76857;DHT22;66179;44.686;37.628;2023-04-22T05:52:47;13.02;90.79
76857;DHT22;66179;44.686;37.628;2023-04-22T05:55:16;13.01;90.05
76857;DHT22;66179;44.686;37.628;2023-04-22T05:57:44;13.03;90.28
76857;DHT22;66179;44.686;37.628;2023-04-22T06:00:31;12.94;88.06
76857;DHT22;66179;44.686;37.628;2023-04-22T06:03:15;12.99;90.35
76857;DHT22;66179;44.686;37.628;2023-04-22T06:05:42;13.00;89.67
76857;DHT22;66179;44.686;37.628;2023-04-22T06:08:10;12.92;88.91
76857;DHT22;66179;44.686;37.628;2023-04-22T06:10:37;13.09;90.02
76857;DHT22;66179;44.686;37.628;2023-04-22T06:13:03;13.05;87.19
76857;DHT22;66179;44.686;37.628;2023-04-22T06:15:33;13.14;89.02
76857;DHT22;66179;44.686;37.628;2023-04-22T06:18:00;13.22;86.89
76857;DHT22;66179;44.686;37.628;2023-04-22T06:20:27;13.29;87.00
76857;DHT22;66179;44.686;37.628;2023-04-22T06:22:54;13.29;86.14
76857;DHT22;66179;44.686;37.628;2023-04-22T06:25:21;13.25;85.91
76857;DHT22;66179;44.686;37.628;2023-04-22T06:27:48;13.33;85.87
76857;DHT22;66179;44.686;37.628;2023-04-22T06:30:16;13.46;85.75
76857;DHT22;66179;44.686;37.628;2023-04-22T06:32:43;13.69;85.89
76857;DHT22;66179;44.686;37.628;2023-04-22T06:35:10;13.71;84.61
76857;DHT22;66179;44.686;37.628;2023-04-22T06:37:37;13.77;86.15
76857;DHT22;66179;44.686;37.628;2023-04-22T06:40:07;13.84;83.61
76857;DHT22;66179;44.686;37.628;2023-04-22T06:43:12;13.97;85.86
76857;DHT22;66179;44.686;37.628;2023-04-22T06:45:58;14.04;82.62
76857;DHT22;66179;44.686;37.628;2023-04-22T06:48:54;14.18;82.72
76857;DHT22;66179;44.686;37.628;2023-04-22T06:51:29;14.10;82.41
76857;DHT22;66179;44.686;37.628;2023-04-22T06:53:58;14.26;82.70
76857;DHT22;66179;44.686;37.628;2023-04-22T06:56:24;14.35;80.56
76857;DHT22;66179;44.686;37.628;2023-04-22T06:58:51;14.20;81.63
76857;DHT22;66179;44.686;37.628;2023-04-22T07:01:18;14.25;82.10
76857;DHT22;66179;44.686;37.628;2023-04-22T07:03:46;14.35;79.82
76857;DHT22;66179;44.686;37.628;2023-04-22T07:06:14;14.32;81.27
76857;DHT22;66179;44.686;37.628;2023-04-22T07:08:41;14.14;80.49
76857;DHT22;66179;44.686;37.628;2023-04-22T07:11:09;14.38;82.03
76857;DHT22;66179;44.686;37.628;2023-04-22T07:13:42;14.56;81.90
76857;DHT22;66179;44.686;37.628;2023-04-22T07:16:09;14.78;80.46
76857;DHT22;66179;44.686;37.628;2023-04-22T07:18:36;14.65;79.78
76857;DHT22;66179;44.686;37.628;2023-04-22T07:21:04;14.40;80.78
76857;DHT22;66179;44.686;37.628;2023-04-22T07:23:31;14.45;81.55
76857;DHT22;66179;44.686;37.628;2023-04-22T07:25:58;14.54;82.20
76857;DHT22;66179;44.686;37.628;2023-04-22T07:28:25;14.75;80.31
76857;DHT22;66179;44.686;37.628;2023-04-22T07:30:53;14.54;81.61
76857;DHT22;66179;44.686;37.628;2023-04-22T07:33:20;14.89;83.16
76857;DHT22;66179;44.686;37.628;2023-04-22T07:35:47;14.80;81.11
76857;DHT22;66179;44.686;37.628;2023-04-22T07:38:14;14.78;81.29
76857;DHT22;66179;44.686;37.628;2023-04-22T07:40:41;14.74;80.49
76857;DHT22;66179;44.686;37.628;2023-04-22T07:43:07;14.59;78.46
76857;DHT22;66179;44.686;37.628;2023-04-22T07:45:34;14.57;82.49
76857;DHT22;66179;44.686;37.628;2023-04-22T07:48:01;14.54;80.14
76857;DHT22;66179;44.686;37.628;2023-04-22T07:50:28;14.43;79.49
76857;DHT22;66179;44.686;37.628;2023-04-22T07:52:55;14.40;80.65
76857;DHT22;66179;44.686;37.628;2023-04-22T07:55:21;14.33;81.83
76857;DHT22;66179;44.686;37.628;2023-04-22T07:57:48;14.49;80.09
76857;DHT22;66179;44.686;37.628;2023-04-22T08:00:15;14.63;80.47
76857;DHT22;66179;44.686;37.628;2023-04-22T08:02:42;14.69;79.57
76857;DHT22;66179;44.686;37.628;2023-04-22T08:05:09;15.06;81.18
76857;DHT22;66179;44.686;37.628;2023-04-22T08:07:36;14.87;78.63
76857;DHT22;66179;44.686;37.628;2023-04-22T08:10:03;15.00;79.24
76857;DHT22;66179;44.686;37.628;2023-04-22T08:12:30;14.98;76.73
76857;DHT22;66179;44.686;37.628;2023-04-22T08:14:57;15.10;79.66
76857;DHT22;66179;44.686;37.628;2023-04-22T08:17:24;14.93;79.58
76857;DHT22;66179;44.686;37.628;2023-04-22T08:19:50;14.88;79.15
76857;DHT22;66179;44.686;37.628;2023-04-22T08:22:17;14.82;78.67
76857;DHT22;66179;44.686;37.628;2023-04-22T08:24:44;14.82;78.63
76857;DHT22;66179;44.686;37.628;2023-04-22T08:27:10;15.06;80.59
76857;DHT22;66179;44.686;37.628;2023-04-22T08:29:37;15.11;78.94
76857;DHT22;66179;44.686;37.628;2023-04-22T08:32:04;15.12;76.98
76857;DHT22;66179;44.686;37.628;2023-04-22T08:34:31;15.08;77.86
76857;DHT22;66179;44.686;37.628;2023-04-22T08:36:58;15.09;78.68
76857;DHT22;66179;44.686;37.628;2023-04-22T08:39:24;14.94;80.08
76857;DHT22;66179;44.686;37.628;2023-04-22T08:41:51;14.85;80.14
76857;DHT22;66179;44.686;37.628;2023-04-22T08:44:18;14.66;80.96
76857;DHT22;66179;44.686;37.628;2023-04-22T08:46:47;14.77;81.10
76857;DHT22;66179;44.686;37.628;2023-04-22T08:49:15;14.72;77.69
76857;DHT22;66179;44.686;37.628;2023-04-22T08:51:48;14.59;80.20
76857;DHT22;66179;44.686;37.628;2023-04-22T08:54:15;14.78;81.00
76857;DHT22;66179;44.686;37.628;2023-04-22T08:56:44;14.91;79.13
76857;DHT22;66179;44.686;37.628;2023-04-22T08:59:12;14.82;80.18
76857;DHT22;66179;44.686;37.628;2023-04-22T09:01:40;14.80;80.32
76857;DHT22;66179;44.686;37.628;2023-04-22T09:04:10;14.60;81.45
76857;DHT22;66179;44.686;37.628;2023-04-22T09:06:40;14.36;82.49
76857;DHT22;66179;44.686;37.628;2023-04-22T09:09:07;14.11;82.45
76857;DHT22;66179;44.686;37.628;2023-04-22T09:11:37;14.01;84.40
76857;DHT22;66179;44.686;37.628;2023-04-22T09:14:04;13.98;84.14
76857;DHT22;66179;44.686;37.628;2023-04-22T09:16:33;13.98;85.48
76857;DHT22;66179;44.686;37.628;2023-04-22T09:19:10;13.95;84.48
76857;DHT22;66179;44.686;37.628;2023-04-22T09:21:39;14.01;84.28
76857;DHT22;66179;44.686;37.628;2023-04-22T09:24:07;13.89;82.86
76857;DHT22;66179;44.686;37.628;2023-04-22T09:26:38;13.82;84.35
76857;DHT22;66179;44.686;37.628;2023-04-22T09:29:06;13.76;84.42
76857;DHT22;66179;44.686;37.628;2023-04-22T09:31:38;13.69;85.27
76857;DHT22;66179;44.686;37.628;2023-04-22T09:34:07;13.62;84.18
76857;DHT22;66179;44.686;37.628;2023-04-22T09:36:33;13.62;84.63
76857;DHT22;66179;44.686;37.628;2023-04-22T09:39:04;13.83;85.07
76857;DHT22;66179;44.686;37.628;2023-04-22T09:41:36;13.82;83.74
76857;DHT22;66179;44.686;37.628;2023-04-22T09:44:13;13.85;84.60
76857;DHT22;66179;44.686;37.628;2023-04-22T09:46:42;13.92;83.93
76857;DHT22;66179;44.686;37.628;2023-04-22T09:49:09;13.90;82.53
76857;DHT22;66179;44.686;37.628;2023-04-22T09:51:41;14.08;85.84
76857;DHT22;66179;44.686;37.628;2023-04-22T09:54:09;14.10;83.41
76857;DHT22;66179;44.686;37.628;2023-04-22T09:59:09;13.75;83.48
76857;DHT22;66179;44.686;37.628;2023-04-22T10:01:38;13.61;84.06
76857;DHT22;66179;44.686;37.628;2023-04-22T10:04:07;13.59;84.94
76857;DHT22;66179;44.686;37.628;2023-04-22T10:06:40;13.58;84.51
76857;DHT22;66179;44.686;37.628;2023-04-22T10:09:08;13.61;84.55
76857;DHT22;66179;44.686;37.628;2023-04-22T10:11:35;13.67;84.88
76857;DHT22;66179;44.686;37.628;2023-04-22T10:14:03;13.58;83.10
76857;DHT22;66179;44.686;37.628;2023-04-22T10:16:32;13.61;84.14
76857;DHT22;66179;44.686;37.628;2023-04-22T10:19:02;13.68;84.39
76857;DHT22;66179;44.686;37.628;2023-04-22T10:21:31;13.65;85.29
76857;DHT22;66179;44.686;37.628;2023-04-22T10:23:58;13.62;84.64
76857;DHT22;66179;44.686;37.628;2023-04-22T10:26:47;13.62;82.77
76857;DHT22;66179;44.686;37.628;2023-04-22T10:29:19;13.69;84.66
76857;DHT22;66179;44.686;37.628;2023-04-22T10:32:03;13.80;84.30
76857;DHT22;66179;44.686;37.628;2023-04-22T10:34:36;13.85;82.03
76857;DHT22;66179;44.686;37.628;2023-04-22T10:37:12;13.80;83.84
76857;DHT22;66179;44.686;37.628;2023-04-22T10:39:40;13.82;82.34
76857;DHT22;66179;44.686;37.628;2023-04-22T10:42:10;13.76;81.39
76857;DHT22;66179;44.686;37.628;2023-04-22T10:44:50;13.91;81.48
76857;DHT22;66179;44.686;37.628;2023-04-22T10:47:34;13.92;81.79
76857;DHT22;66179;44.686;37.628;2023-04-22T10:50:30;13.97;82.26
76857;DHT22;66179;44.686;37.628;2023-04-22T10:52:59;13.96;80.96
76857;DHT22;66179;44.686;37.628;2023-04-22T10:55:50;13.83;80.93
76857;DHT22;66179;44.686;37.628;2023-04-22T10:58:23;13.94;82.17
76857;DHT22;66179;44.686;37.628;2023-04-22T11:00:53;13.99;81.42
76857;DHT22;66179;44.686;37.628;2023-04-22T11:03:33;14.10;79.76
76857;DHT22;66179;44.686;37.628;2023-04-22T11:06:14;14.15;80.88
76857;DHT22;66179;44.686;37.628;2023-04-22T11:08:48;14.30;81.17
76857;DHT22;66179;44.686;37.628;2023-04-22T11:11:16;14.25;80.39
76857;DHT22;66179;44.686;37.628;2023-04-22T11:13:45;14.39;80.04
76857;DHT22;66179;44.686;37.628;2023-04-22T11:16:12;14.32;79.66
76857;DHT22;66179;44.686;37.628;2023-04-22T11:18:39;14.39;79.50
76857;DHT22;66179;44.686;37.628;2023-04-22T11:21:06;14.49;80.56
76857;DHT22;66179;44.686;37.628;2023-04-22T11:23:34;14.68;79.38
76857;DHT22;66179;44.686;37.628;2023-04-22T11:26:05;14.65;78.00
76857;DHT22;66179;44.686;37.628;2023-04-22T11:28:33;14.55;77.53
76857;DHT22;66179;44.686;37.628;2023-04-22T11:31:07;14.51;78.43
76857;DHT22;66179;44.686;37.628;2023-04-22T11:33:35;14.32;77.95
76857;DHT22;66179;44.686;37.628;2023-04-22T11:36:08;14.23;78.72
76857;DHT22;66179;44.686;37.628;2023-04-22T11:38:36;14.17;78.50
76857;DHT22;66179;44.686;37.628;2023-04-22T11:41:02;14.09;79.95
76857;DHT22;66179;44.686;37.628;2023-04-22T11:43:30;14.03;79.06
76857;DHT22;66179;44.686;37.628;2023-04-22T11:45:56;14.18;80.08
76857;DHT22;66179;44.686;37.628;2023-04-22T11:48:23;14.22;81.59
76857;DHT22;66179;44.686;37.628;2023-04-22T11:51:09;14.05;78.69
76857;DHT22;66179;44.686;37.628;2023-04-22T11:53:36;14.09;80.76
76857;DHT22;66179;44.686;37.628;2023-04-22T11:56:04;14.09;80.30
76857;DHT22;66179;44.686;37.628;2023-04-22T11:58:31;14.06;79.50
76857;DHT22;66179;44.686;37.628;2023-04-22T12:00:58;14.01;79.22
76857;DHT22;66179;44.686;37.628;2023-04-22T12:03:27;14.01;80.75
76857;DHT22;66179;44.686;37.628;2023-04-22T12:05:57;13.99;81.62
76857;DHT22;66179;44.686;37.628;2023-04-22T12:08:34;13.95;80.26
76857;DHT22;66179;44.686;37.628;2023-04-22T12:11:10;13.94;80.72
76857;DHT22;66179;44.686;37.628;2023-04-22T12:16:08;13.76;81.22
76857;DHT22;66179;44.686;37.628;2023-04-22T12:18:53;13.75;79.99
76857;DHT22;66179;44.686;37.628;2023-04-22T12:21:22;13.70;81.43
76857;DHT22;66179;44.686;37.628;2023-04-22T12:23:51;13.68;80.23
76857;DHT22;66179;44.686;37.628;2023-04-22T12:26:20;13.58;81.17
76857;DHT22;66179;44.686;37.628;2023-04-22T12:28:47;13.53;81.94
76857;DHT22;66179;44.686;37.628;2023-04-22T12:31:14;13.51;81.48
76857;DHT22;66179;44.686;37.628;2023-04-22T12:33:42;13.47;80.16
76857;DHT22;66179;44.686;37.628;2023-04-22T12:36:09;13.50;79.92
76857;DHT22;66179;44.686;37.628;2023-04-22T12:38:37;13.50;80.78
76857;DHT22;66179;44.686;37.628;2023-04-22T12:41:05;13.49;81.59
76857;DHT22;66179;44.686;37.628;2023-04-22T12:43:32;13.47;82.39
76857;DHT22;66179;44.686;37.628;2023-04-22T12:46:02;13.46;82.20
76857;DHT22;66179;44.686;37.628;2023-04-22T12:48:29;13.49;81.40
76857;DHT22;66179;44.686;37.628;2023-04-22T12:50:55;13.58;82.05
76857;DHT22;66179;44.686;37.628;2023-04-22T12:53:23;13.64;80.64
76857;DHT22;66179;44.686;37.628;2023-04-22T12:55:49;13.66;80.62
76857;DHT22;66179;44.686;37.628;2023-04-22T12:58:16;13.65;79.93
76857;DHT22;66179;44.686;37.628;2023-04-22T13:00:43;13.73;80.24
76857;DHT22;66179;44.686;37.628;2023-04-22T13:03:09;13.68;80.20
76857;DHT22;66179;44.686;37.628;2023-04-22T13:05:36;13.64;79.81
76857;DHT22;66179;44.686;37.628;2023-04-22T13:08:05;13.65;80.36
76857;DHT22;66179;44.686;37.628;2023-04-22T13:10:32;13.67;79.96
76857;DHT22;66179;44.686;37.628;2023-04-22T13:12:58;13.69;80.83
76857;DHT22;66179;44.686;37.628;2023-04-22T13:15:25;13.71;80.92
76857;DHT22;66179;44.686;37.628;2023-04-22T13:17:52;13.67;79.40
76857;DHT22;66179;44.686;37.628;2023-04-22T13:20:18;13.56;80.59
76857;DHT22;66179;44.686;37.628;2023-04-22T13:22:47;13.55;81.75
76857;DHT22;66179;44.686;37.628;2023-04-22T13:25:13;13.51;81.09
76857;DHT22;66179;44.686;37.628;2023-04-22T13:27:40;13.49;82.44
76857;DHT22;66179;44.686;37.628;2023-04-22T13:30:07;13.53;83.20
76857;DHT22;66179;44.686;37.628;2023-04-22T13:32:35;13.64;82.53
76857;DHT22;66179;44.686;37.628;2023-04-22T13:35:02;13.93;81.45
76857;DHT22;66179;44.686;37.628;2023-04-22T13:37:33;14.00;79.96
76857;DHT22;66179;44.686;37.628;2023-04-22T13:40:02;14.19;79.39
76857;DHT22;66179;44.686;37.628;2023-04-22T13:42:30;14.15;80.04
76857;DHT22;66179;44.686;37.628;2023-04-22T13:44:57;14.09;79.13
76857;DHT22;66179;44.686;37.628;2023-04-22T13:47:24;14.06;81.79
76857;DHT22;66179;44.686;37.628;2023-04-22T13:49:51;14.03;80.23
76857;DHT22;66179;44.686;37.628;2023-04-22T13:52:17;13.93;80.00
76857;DHT22;66179;44.686;37.628;2023-04-22T13:54:44;13.88;80.00
76857;DHT22;66179;44.686;37.628;2023-04-22T13:57:11;13.75;79.72
76857;DHT22;66179;44.686;37.628;2023-04-22T13:59:40;13.60;80.71
76857;DHT22;66179;44.686;37.628;2023-04-22T14:02:06;13.44;80.94
76857;DHT22;66179;44.686;37.628;2023-04-22T14:04:33;13.40;82.31
76857;DHT22;66179;44.686;37.628;2023-04-22T14:07:00;13.37;82.52
76857;DHT22;66179;44.686;37.628;2023-04-22T14:09:27;13.29;83.78
76857;DHT22;66179;44.686;37.628;2023-04-22T14:11:53;13.47;84.38
76857;DHT22;66179;44.686;37.628;2023-04-22T14:14:26;13.53;82.85
76857;DHT22;66179;44.686;37.628;2023-04-22T14:16:52;13.63;82.98
76857;DHT22;66179;44.686;37.628;2023-04-22T14:19:19;13.63;81.49
76857;DHT22;66179;44.686;37.628;2023-04-22T14:21:46;13.62;80.84
76857;DHT22;66179;44.686;37.628;2023-04-22T14:24:13;13.62;80.71
76857;DHT22;66179;44.686;37.628;2023-04-22T14:26:39;13.56;82.01
76857;DHT22;66179;44.686;37.628;2023-04-22T14:29:11;13.75;79.95
76857;DHT22;66179;44.686;37.628;2023-04-22T14:31:38;13.74;79.33
76857;DHT22;66179;44.686;37.628;2023-04-22T14:34:05;13.75;79.78
76857;DHT22;66179;44.686;37.628;2023-04-22T14:36:31;13.73;80.40
76857;DHT22;66179;44.686;37.628;2023-04-22T14:38:58;13.70;80.72
76857;DHT22;66179;44.686;37.628;2023-04-22T14:41:25;13.58;80.44
76857;DHT22;66179;44.686;37.628;2023-04-22T14:43:52;13.47;80.18
76857;DHT22;66179;44.686;37.628;2023-04-22T14:46:19;13.31;80.79
76857;DHT22;66179;44.686;37.628;2023-04-22T14:48:46;13.34;81.77
76857;DHT22;66179;44.686;37.628;2023-04-22T14:51:12;13.32;80.87
76857;DHT22;66179;44.686;37.628;2023-04-22T14:53:39;13.24;80.95
76857;DHT22;66179;44.686;37.628;2023-04-22T14:56:07;13.23;81.04
76857;DHT22;66179;44.686;37.628;2023-04-22T14:58:33;13.18;81.52
76857;DHT22;66179;44.686;37.628;2023-04-22T15:01:00;13.07;82.02
76857;DHT22;66179;44.686;37.628;2023-04-22T15:03:28;13.00;82.26
76857;DHT22;66179;44.686;37.628;2023-04-22T15:05:55;12.95;82.15
76857;DHT22;66179;44.686;37.628;2023-04-22T15:08:27;13.00;81.97
76857;DHT22;66179;44.686;37.628;2023-04-22T15:10:54;12.94;81.94
76857;DHT22;66179;44.686;37.628;2023-04-22T15:13:21;12.91;82.56
76857;DHT22;66179;44.686;37.628;2023-04-22T15:15:47;12.85;83.00
76857;DHT22;66179;44.686;37.628;2023-04-22T15:18:14;12.84;82.78
76857;DHT22;66179;44.686;37.628;2023-04-22T15:20:41;12.87;83.23
76857;DHT22;66179;44.686;37.628;2023-04-22T15:23:08;12.84;83.60
76857;DHT22;66179;44.686;37.628;2023-04-22T15:25:35;12.78;84.53
76857;DHT22;66179;44.686;37.628;2023-04-22T15:28:02;12.79;84.54
76857;DHT22;66179;44.686;37.628;2023-04-22T15:30:29;12.78;84.00